sensor_id;sensor_type;location;lat;lon;timestamp;temperature;humidity
13482;DHT22;6813;60.352;15.746;2023-04-03T01:25:46;-2.80;87.60
13482;DHT22;6813;60.352;15.746;2023-04-03T01:28:22;-2.80;88.10
13482;DHT22;6813;60.352;15.746;2023-04-03T01:31:03;-2.80;88.70
13482;DHT22;6813;60.352;15.746;2023-04-03T01:33:31;-2.70;89.10
13482;DHT22;6813;60.352;15.746;2023-04-03T01:35:57;-2.80;89.10
13482;DHT22;6813;60.352;15.746;2023-04-03T01:38:23;-2.90;89.10
13482;DHT22;6813;60.352;15.746;2023-04-03T01:40:48;-2.90;89.40
13482;DHT22;6813;60.352;15.746;2023-04-03T01:43:14;-3.00;89.80
13482;DHT22;6813;60.352;15.746;2023-04-03T01:45:40;-2.90;90.10
13482;DHT22;6813;60.352;15.746;2023-04-03T01:48:05;-2.90;90.30
13482;DHT22;6813;60.352;15.746;2023-04-03T01:50:31;-3.00;90.30
13482;DHT22;6813;60.352;15.746;2023-04-03T01:52:57;-3.10;90.50
13482;DHT22;6813;60.352;15.746;2023-04-03T01:55:23;-3.10;90.60
13482;DHT22;6813;60.352;15.746;2023-04-03T01:57:48;-3.20;90.40
13482;DHT22;6813;60.352;15.746;2023-04-03T02:00:14;-3.10;90.70
13482;DHT22;6813;60.352;15.746;2023-04-03T02:02:40;-3.10;90.80
13482;DHT22;6813;60.352;15.746;2023-04-03T02:05:06;-3.20;90.80
13482;DHT22;6813;60.352;15.746;2023-04-03T02:07:32;-3.40;91.00
13482;DHT22;6813;60.352;15.746;2023-04-03T02:09:58;-3.50;91.50
13482;DHT22;6813;60.352;15.746;2023-04-03T02:12:23;-3.60;91.70
13482;DHT22;6813;60.352;15.746;2023-04-03T02:14:49;-3.40;91.70
13482;DHT22;6813;60.352;15.746;2023-04-03T02:17:15;-3.40;91.60
13482;DHT22;6813;60.352;15.746;2023-04-03T02:19:41;-3.50;91.50
13482;DHT22;6813;60.352;15.746;2023-04-03T02:22:06;-3.40;91.60
13482;DHT22;6813;60.352;15.746;2023-04-03T02:24:32;-3.50;91.30
13482;DHT22;6813;60.352;15.746;2023-04-03T02:26:58;-3.50;91.40
13482;DHT22;6813;60.352;15.746;2023-04-03T02:29:23;-3.60;91.50
13482;DHT22;6813;60.352;15.746;2023-04-03T02:31:50;-3.50;91.60
13482;DHT22;6813;60.352;15.746;2023-04-03T02:34:16;-3.40;91.40
13482;DHT22;6813;60.352;15.746;2023-04-03T02:36:41;-3.30;91.10
13482;DHT22;6813;60.352;15.746;2023-04-03T02:39:07;-3.30;90.70
13482;DHT22;6813;60.352;15.746;2023-04-03T02:41:33;-3.30;90.60
13482;DHT22;6813;60.352;15.746;2023-04-03T02:44:06;-3.30;90.30
13482;DHT22;6813;60.352;15.746;2023-04-03T02:46:32;-3.30;90.30
13482;DHT22;6813;60.352;15.746;2023-04-03T02:48:58;-3.40;90.60
13482;DHT22;6813;60.352;15.746;2023-04-03T02:51:24;-3.40;90.50
13482;DHT22;6813;60.352;15.746;2023-04-03T02:53:50;-3.60;90.30
13482;DHT22;6813;60.352;15.746;2023-04-03T02:56:16;-3.60;90.50
13482;DHT22;6813;60.352;15.746;2023-04-03T02:58:44;-3.80;90.80
13482;DHT22;6813;60.352;15.746;2023-04-03T03:01:10;-3.80;91.10
13482;DHT22;6813;60.352;15.746;2023-04-03T03:03:36;-4.00;91.30
13482;DHT22;6813;60.352;15.746;2023-04-03T03:06:13;-3.90;91.50
13482;DHT22;6813;60.352;15.746;2023-04-03T03:08:39;-4.00;91.60
13482;DHT22;6813;60.352;15.746;2023-04-03T03:11:06;-4.10;91.70
13482;DHT22;6813;60.352;15.746;2023-04-03T03:13:32;-4.00;91.80
13482;DHT22;6813;60.352;15.746;2023-04-03T03:15:58;-4.00;91.70
13482;DHT22;6813;60.352;15.746;2023-04-03T03:18:23;-3.90;91.40
13482;DHT22;6813;60.352;15.746;2023-04-03T03:20:54;-3.90;91.10
13482;DHT22;6813;60.352;15.746;2023-04-03T03:23:21;-3.90;90.90
13482;DHT22;6813;60.352;15.746;2023-04-03T03:25:47;-3.90;90.80
13482;DHT22;6813;60.352;15.746;2023-04-03T03:28:13;-3.80;90.70
13482;DHT22;6813;60.352;15.746;2023-04-03T03:30:38;-3.90;90.50
13482;DHT22;6813;60.352;15.746;2023-04-03T03:33:04;-3.90;90.50
13482;DHT22;6813;60.352;15.746;2023-04-03T03:35:30;-4.00;90.70
13482;DHT22;6813;60.352;15.746;2023-04-03T03:37:56;-4.10;90.90
13482;DHT22;6813;60.352;15.746;2023-04-03T03:40:22;-4.10;91.00
13482;DHT22;6813;60.352;15.746;2023-04-03T03:42:48;-4.30;91.10
13482;DHT22;6813;60.352;15.746;2023-04-03T03:45:13;-4.40;91.40
13482;DHT22;6813;60.352;15.746;2023-04-03T03:47:39;-4.30;91.60
13482;DHT22;6813;60.352;15.746;2023-04-03T03:50:05;-4.30;91.50
13482;DHT22;6813;60.352;15.746;2023-04-03T03:52:31;-4.30;91.50
13482;DHT22;6813;60.352;15.746;2023-04-03T03:54:57;-4.20;91.40
13482;DHT22;6813;60.352;15.746;2023-04-03T03:57:23;-4.20;91.40
13482;DHT22;6813;60.352;15.746;2023-04-03T03:59:48;-4.20;91.30
13482;DHT22;6813;60.352;15.746;2023-04-03T04:02:15;-4.30;91.40
13482;DHT22;6813;60.352;15.746;2023-04-03T04:04:41;-4.40;91.40
13482;DHT22;6813;60.352;15.746;2023-04-03T04:07:07;-4.60;91.60
13482;DHT22;6813;60.352;15.746;2023-04-03T04:09:33;-4.50;91.90
13482;DHT22;6813;60.352;15.746;2023-04-03T04:11:58;-4.40;92.10
13482;DHT22;6813;60.352;15.746;2023-04-03T04:14:24;-4.40;92.10
13482;DHT22;6813;60.352;15.746;2023-04-03T04:16:50;-4.40;92.20
13482;DHT22;6813;60.352;15.746;2023-04-03T04:19:16;-4.40;92.00
13482;DHT22;6813;60.352;15.746;2023-04-03T04:21:41;-4.40;91.90
13482;DHT22;6813;60.352;15.746;2023-04-03T04:24:08;-4.40;92.20
13482;DHT22;6813;60.352;15.746;2023-04-03T04:26:34;-4.50;92.00
13482;DHT22;6813;60.352;15.746;2023-04-03T04:29:00;-4.60;92.20
13482;DHT22;6813;60.352;15.746;2023-04-03T04:31:26;-4.60;92.60
13482;DHT22;6813;60.352;15.746;2023-04-03T04:33:53;-4.50;92.70
13482;DHT22;6813;60.352;15.746;2023-04-03T04:36:18;-4.50;92.80
13482;DHT22;6813;60.352;15.746;2023-04-03T04:38:45;-4.60;92.70
13482;DHT22;6813;60.352;15.746;2023-04-03T04:41:11;-4.50;92.80
13482;DHT22;6813;60.352;15.746;2023-04-03T04:43:36;-4.50;92.80
13482;DHT22;6813;60.352;15.746;2023-04-03T04:46:05;-4.50;92.70
13482;DHT22;6813;60.352;15.746;2023-04-03T04:48:31;-4.50;92.80
13482;DHT22;6813;60.352;15.746;2023-04-03T04:50:57;-4.50;92.90
13482;DHT22;6813;60.352;15.746;2023-04-03T04:53:22;-4.60;92.90
13482;DHT22;6813;60.352;15.746;2023-04-03T04:55:48;-4.50;93.20
13482;DHT22;6813;60.352;15.746;2023-04-03T04:58:14;-4.40;93.30
13482;DHT22;6813;60.352;15.746;2023-04-03T05:00:39;-4.20;93.60
13482;DHT22;6813;60.352;15.746;2023-04-03T05:03:05;-4.10;93.70
13482;DHT22;6813;60.352;15.746;2023-04-03T05:05:31;-4.00;93.70
13482;DHT22;6813;60.352;15.746;2023-04-03T05:07:57;-3.90;93.50
13482;DHT22;6813;60.352;15.746;2023-04-03T05:10:23;-3.70;94.30
13482;DHT22;6813;60.352;15.746;2023-04-03T05:12:48;-3.70;94.00
13482;DHT22;6813;60.352;15.746;2023-04-03T05:15:14;-3.60;93.90
13482;DHT22;6813;60.352;15.746;2023-04-03T05:17:40;-3.60;93.70
13482;DHT22;6813;60.352;15.746;2023-04-03T05:20:06;-3.50;93.50
13482;DHT22;6813;60.352;15.746;2023-04-03T05:22:32;-3.40;93.30
13482;DHT22;6813;60.352;15.746;2023-04-03T05:24:57;-3.30;93.20
13482;DHT22;6813;60.352;15.746;2023-04-03T05:27:23;-3.30;93.40
13482;DHT22;6813;60.352;15.746;2023-04-03T05:29:50;-3.20;93.60
13482;DHT22;6813;60.352;15.746;2023-04-03T05:32:16;-3.00;93.90
13482;DHT22;6813;60.352;15.746;2023-04-03T05:34:42;-2.60;95.40
13482;DHT22;6813;60.352;15.746;2023-04-03T05:37:07;-2.30;95.20
13482;DHT22;6813;60.352;15.746;2023-04-03T05:39:33;-2.00;94.40
13482;DHT22;6813;60.352;15.746;2023-04-03T05:41:59;-1.60;93.80
13482;DHT22;6813;60.352;15.746;2023-04-03T05:44:25;-1.10;93.40
13482;DHT22;6813;60.352;15.746;2023-04-03T05:46:51;-0.70;92.80
13482;DHT22;6813;60.352;15.746;2023-04-03T05:49:16;-0.60;91.80
13482;DHT22;6813;60.352;15.746;2023-04-03T05:51:43;-0.40;91.70
13482;DHT22;6813;60.352;15.746;2023-04-03T05:54:17;-0.10;91.60
13482;DHT22;6813;60.352;15.746;2023-04-03T05:56:43;0.00;90.70
13482;DHT22;6813;60.352;15.746;2023-04-03T05:59:10;0.20;90.50
13482;DHT22;6813;60.352;15.746;2023-04-03T06:01:35;0.50;90.60
13482;DHT22;6813;60.352;15.746;2023-04-03T06:04:01;0.80;89.50
13482;DHT22;6813;60.352;15.746;2023-04-03T06:09:08;1.30;88.30
13482;DHT22;6813;60.352;15.746;2023-04-03T06:11:34;1.60;86.80
13482;DHT22;6813;60.352;15.746;2023-04-03T06:14:01;2.00;84.80
13482;DHT22;6813;60.352;15.746;2023-04-03T06:16:26;2.20;85.20
13482;DHT22;6813;60.352;15.746;2023-04-03T06:18:52;2.40;84.10
13482;DHT22;6813;60.352;15.746;2023-04-03T06:21:18;2.70;82.50
13482;DHT22;6813;60.352;15.746;2023-04-03T06:23:43;3.00;82.00
13482;DHT22;6813;60.352;15.746;2023-04-03T06:26:09;3.30;82.00
13482;DHT22;6813;60.352;15.746;2023-04-03T06:28:35;3.60;81.40
13482;DHT22;6813;60.352;15.746;2023-04-03T06:31:01;4.00;81.70
13482;DHT22;6813;60.352;15.746;2023-04-03T06:33:26;4.50;81.20
13482;DHT22;6813;60.352;15.746;2023-04-03T06:35:58;4.90;79.90
13482;DHT22;6813;60.352;15.746;2023-04-03T06:38:24;5.30;75.70
13482;DHT22;6813;60.352;15.746;2023-04-03T06:40:50;5.50;76.00
13482;DHT22;6813;60.352;15.746;2023-04-03T06:43:17;5.70;75.80
13482;DHT22;6813;60.352;15.746;2023-04-03T06:45:43;6.00;74.80
13482;DHT22;6813;60.352;15.746;2023-04-03T06:48:08;6.10;72.00
13482;DHT22;6813;60.352;15.746;2023-04-03T06:50:34;6.30;72.20
13482;DHT22;6813;60.352;15.746;2023-04-03T06:53:00;6.50;72.90
13482;DHT22;6813;60.352;15.746;2023-04-03T06:55:26;6.90;72.00
13482;DHT22;6813;60.352;15.746;2023-04-03T06:57:52;7.20;71.00
13482;DHT22;6813;60.352;15.746;2023-04-03T07:00:18;7.40;70.00
13482;DHT22;6813;60.352;15.746;2023-04-03T07:02:44;7.60;68.70
13482;DHT22;6813;60.352;15.746;2023-04-03T07:05:10;7.60;67.10
13482;DHT22;6813;60.352;15.746;2023-04-03T07:07:37;7.70;67.10
13482;DHT22;6813;60.352;15.746;2023-04-03T07:10:04;7.80;66.10
13482;DHT22;6813;60.352;15.746;2023-04-03T07:12:30;7.60;65.80
13482;DHT22;6813;60.352;15.746;2023-04-03T07:14:55;7.80;66.60
13482;DHT22;6813;60.352;15.746;2023-04-03T07:17:21;8.00;65.90
13482;DHT22;6813;60.352;15.746;2023-04-03T07:19:47;8.30;64.80
13482;DHT22;6813;60.352;15.746;2023-04-03T07:22:13;8.50;64.70
13482;DHT22;6813;60.352;15.746;2023-04-03T07:24:41;8.70;64.90
13482;DHT22;6813;60.352;15.746;2023-04-03T07:27:06;9.00;64.30
13482;DHT22;6813;60.352;15.746;2023-04-03T07:29:34;9.10;62.60
13482;DHT22;6813;60.352;15.746;2023-04-03T07:32:01;9.20;63.20
13482;DHT22;6813;60.352;15.746;2023-04-03T07:34:27;9.10;60.70
13482;DHT22;6813;60.352;15.746;2023-04-03T07:36:52;9.10;61.50
13482;DHT22;6813;60.352;15.746;2023-04-03T07:39:18;9.10;61.70
13482;DHT22;6813;60.352;15.746;2023-04-03T07:41:47;9.20;61.40
13482;DHT22;6813;60.352;15.746;2023-04-03T07:44:13;9.10;62.00
13482;DHT22;6813;60.352;15.746;2023-04-03T07:46:38;8.90;60.50
13482;DHT22;6813;60.352;15.746;2023-04-03T07:49:04;8.70;61.70
13482;DHT22;6813;60.352;15.746;2023-04-03T07:51:30;8.70;62.70
13482;DHT22;6813;60.352;15.746;2023-04-03T07:53:56;8.80;61.60
13482;DHT22;6813;60.352;15.746;2023-04-03T07:56:21;8.80;60.70
13482;DHT22;6813;60.352;15.746;2023-04-03T07:58:48;9.00;61.90
13482;DHT22;6813;60.352;15.746;2023-04-03T08:01:13;9.10;61.40
13482;DHT22;6813;60.352;15.746;2023-04-03T08:03:39;9.20;60.70
13482;DHT22;6813;60.352;15.746;2023-04-03T08:06:07;9.00;60.30
13482;DHT22;6813;60.352;15.746;2023-04-03T08:08:33;9.20;60.60
13482;DHT22;6813;60.352;15.746;2023-04-03T08:11:00;9.30;61.20
13482;DHT22;6813;60.352;15.746;2023-04-03T08:13:28;9.40;61.20
13482;DHT22;6813;60.352;15.746;2023-04-03T08:15:54;9.30;59.60
13482;DHT22;6813;60.352;15.746;2023-04-03T08:18:23;9.50;60.80
13482;DHT22;6813;60.352;15.746;2023-04-03T08:20:51;9.50;59.70
13482;DHT22;6813;60.352;15.746;2023-04-03T08:23:17;9.70;61.00
13482;DHT22;6813;60.352;15.746;2023-04-03T08:25:43;9.80;60.60
13482;DHT22;6813;60.352;15.746;2023-04-03T08:28:10;9.70;59.10
13482;DHT22;6813;60.352;15.746;2023-04-03T08:30:39;9.70;60.80
13482;DHT22;6813;60.352;15.746;2023-04-03T08:33:05;9.80;59.60
13482;DHT22;6813;60.352;15.746;2023-04-03T08:35:31;9.90;59.70
13482;DHT22;6813;60.352;15.746;2023-04-03T08:37:57;10.10;59.00
13482;DHT22;6813;60.352;15.746;2023-04-03T08:40:23;10.30;58.20
13482;DHT22;6813;60.352;15.746;2023-04-03T08:45:53;10.50;57.70
13482;DHT22;6813;60.352;15.746;2023-04-03T08:48:33;10.50;56.40
13482;DHT22;6813;60.352;15.746;2023-04-03T08:51:08;10.70;56.50
13482;DHT22;6813;60.352;15.746;2023-04-03T08:53:40;10.80;55.00
13482;DHT22;6813;60.352;15.746;2023-04-03T08:56:12;10.80;52.90
13482;DHT22;6813;60.352;15.746;2023-04-03T08:58:51;10.80;54.10
13482;DHT22;6813;60.352;15.746;2023-04-03T09:01:26;10.70;54.50
13482;DHT22;6813;60.352;15.746;2023-04-03T09:03:54;10.80;55.60
13482;DHT22;6813;60.352;15.746;2023-04-03T09:06:27;10.80;55.40
13482;DHT22;6813;60.352;15.746;2023-04-03T09:09:22;10.70;54.20
13482;DHT22;6813;60.352;15.746;2023-04-03T09:12:49;10.90;55.10
13482;DHT22;6813;60.352;15.746;2023-04-03T09:15:20;10.90;55.40
13482;DHT22;6813;60.352;15.746;2023-04-03T09:17:57;11.00;54.50
13482;DHT22;6813;60.352;15.746;2023-04-03T09:20:49;10.90;54.50
13482;DHT22;6813;60.352;15.746;2023-04-03T09:26:05;10.80;52.90
13482;DHT22;6813;60.352;15.746;2023-04-03T09:28:37;10.80;52.80
13482;DHT22;6813;60.352;15.746;2023-04-03T09:33:44;10.90;53.30
13482;DHT22;6813;60.352;15.746;2023-04-03T09:36:10;11.00;53.10
13482;DHT22;6813;60.352;15.746;2023-04-03T09:38:36;11.00;52.30
13482;DHT22;6813;60.352;15.746;2023-04-03T09:41:07;11.10;51.80
13482;DHT22;6813;60.352;15.746;2023-04-03T09:43:34;11.10;51.10
13482;DHT22;6813;60.352;15.746;2023-04-03T09:46:23;11.10;51.60
13482;DHT22;6813;60.352;15.746;2023-04-03T09:48:58;11.30;52.00
13482;DHT22;6813;60.352;15.746;2023-04-03T09:51:28;11.40;51.30
13482;DHT22;6813;60.352;15.746;2023-04-03T09:53:54;11.40;47.40
13482;DHT22;6813;60.352;15.746;2023-04-03T09:56:28;11.40;50.30
13482;DHT22;6813;60.352;15.746;2023-04-03T10:01:32;11.40;51.60
13482;DHT22;6813;60.352;15.746;2023-04-03T10:04:18;11.50;51.50
13482;DHT22;6813;60.352;15.746;2023-04-03T10:06:53;11.60;50.20
13482;DHT22;6813;60.352;15.746;2023-04-03T10:09:28;11.50;49.30
13482;DHT22;6813;60.352;15.746;2023-04-03T10:12:06;11.60;49.00
13482;DHT22;6813;60.352;15.746;2023-04-03T10:14:37;11.30;48.00
13482;DHT22;6813;60.352;15.746;2023-04-03T10:19:36;11.40;47.00
13482;DHT22;6813;60.352;15.746;2023-04-03T10:22:08;11.60;47.40
13482;DHT22;6813;60.352;15.746;2023-04-03T10:27:47;11.40;47.20
13482;DHT22;6813;60.352;15.746;2023-04-03T10:30:21;11.50;47.60
13482;DHT22;6813;60.352;15.746;2023-04-03T10:38:49;11.30;47.80
13482;DHT22;6813;60.352;15.746;2023-04-03T10:52:40;10.90;47.90
13482;DHT22;6813;60.352;15.746;2023-04-03T10:57:59;11.00;49.00
13482;DHT22;6813;60.352;15.746;2023-04-03T11:00:47;11.10;49.00
13482;DHT22;6813;60.352;15.746;2023-04-03T11:03:33;11.10;47.70
13482;DHT22;6813;60.352;15.746;2023-04-03T11:06:03;11.20;47.80
13482;DHT22;6813;60.352;15.746;2023-04-03T11:08:50;11.20;48.60
13482;DHT22;6813;60.352;15.746;2023-04-03T11:11:30;11.20;48.20
13482;DHT22;6813;60.352;15.746;2023-04-03T11:16:42;11.20;48.30
13482;DHT22;6813;60.352;15.746;2023-04-03T11:19:20;11.20;48.20
13482;DHT22;6813;60.352;15.746;2023-04-03T11:21:56;11.30;47.90
13482;DHT22;6813;60.352;15.746;2023-04-03T11:24:26;11.00;50.20
13482;DHT22;6813;60.352;15.746;2023-04-03T11:26:54;11.00;48.80
13482;DHT22;6813;60.352;15.746;2023-04-03T11:29:24;11.00;49.00
13482;DHT22;6813;60.352;15.746;2023-04-03T11:34:58;10.80;48.70
13482;DHT22;6813;60.352;15.746;2023-04-03T11:37:39;10.00;49.40
13482;DHT22;6813;60.352;15.746;2023-04-03T11:42:40;9.50;52.30
13482;DHT22;6813;60.352;15.746;2023-04-03T11:45:36;9.50;53.30
13482;DHT22;6813;60.352;15.746;2023-04-03T11:53:53;9.40;52.30
13482;DHT22;6813;60.352;15.746;2023-04-03T12:02:14;10.00;50.10
13482;DHT22;6813;60.352;15.746;2023-04-03T12:05:26;10.10;50.70
13482;DHT22;6813;60.352;15.746;2023-04-03T12:16:30;9.40;51.80
13482;DHT22;6813;60.352;15.746;2023-04-03T12:29:46;8.00;53.60
13482;DHT22;6813;60.352;15.746;2023-04-03T12:46:12;8.80;54.60
13482;DHT22;6813;60.352;15.746;2023-04-03T12:48:48;8.90;55.20
13482;DHT22;6813;60.352;15.746;2023-04-03T12:51:22;9.10;56.10
13482;DHT22;6813;60.352;15.746;2023-04-03T12:54:01;9.30;54.60
13482;DHT22;6813;60.352;15.746;2023-04-03T12:56:30;9.30;53.30
13482;DHT22;6813;60.352;15.746;2023-04-03T12:59:20;9.40;55.10
13482;DHT22;6813;60.352;15.746;2023-04-03T13:01:54;9.50;55.00
13482;DHT22;6813;60.352;15.746;2023-04-03T13:04:21;9.50;55.00
13482;DHT22;6813;60.352;15.746;2023-04-03T13:06:47;9.50;53.70
13482;DHT22;6813;60.352;15.746;2023-04-03T13:11:54;9.60;54.50
13482;DHT22;6813;60.352;15.746;2023-04-03T13:14:23;9.60;55.10
13482;DHT22;6813;60.352;15.746;2023-04-03T13:17:14;9.60;54.50
13482;DHT22;6813;60.352;15.746;2023-04-03T13:19:41;9.50;54.40
13482;DHT22;6813;60.352;15.746;2023-04-03T13:22:36;9.40;53.60
13482;DHT22;6813;60.352;15.746;2023-04-03T13:25:10;9.40;53.30
13482;DHT22;6813;60.352;15.746;2023-04-03T13:27:38;9.30;53.90
13482;DHT22;6813;60.352;15.746;2023-04-03T13:30:06;9.30;55.30
13482;DHT22;6813;60.352;15.746;2023-04-03T13:32:32;9.30;55.30
13482;DHT22;6813;60.352;15.746;2023-04-03T13:34:59;9.20;55.20
13482;DHT22;6813;60.352;15.746;2023-04-03T13:37:30;9.10;55.30
13482;DHT22;6813;60.352;15.746;2023-04-03T13:40:10;9.10;53.80
13482;DHT22;6813;60.352;15.746;2023-04-03T13:42:39;8.60;53.30
13482;DHT22;6813;60.352;15.746;2023-04-03T13:45:23;8.50;54.50
13482;DHT22;6813;60.352;15.746;2023-04-03T13:47:51;8.60;54.80
13482;DHT22;6813;60.352;15.746;2023-04-03T13:50:25;8.30;56.80
13482;DHT22;6813;60.352;15.746;2023-04-03T13:53:08;8.30;56.20
13482;DHT22;6813;60.352;15.746;2023-04-03T13:55:39;8.40;55.50
13482;DHT22;6813;60.352;15.746;2023-04-03T13:58:25;8.50;55.70
13482;DHT22;6813;60.352;15.746;2023-04-03T14:04:00;8.60;54.90
13482;DHT22;6813;60.352;15.746;2023-04-03T14:06:27;8.60;55.40
13482;DHT22;6813;60.352;15.746;2023-04-03T14:08:54;8.70;55.20
13482;DHT22;6813;60.352;15.746;2023-04-03T14:11:26;8.60;54.50
13482;DHT22;6813;60.352;15.746;2023-04-03T14:13:53;8.60;55.20
13482;DHT22;6813;60.352;15.746;2023-04-03T14:16:23;8.60;55.00
13482;DHT22;6813;60.352;15.746;2023-04-03T14:18:51;8.40;53.20
13482;DHT22;6813;60.352;15.746;2023-04-03T14:21:19;8.10;55.90
13482;DHT22;6813;60.352;15.746;2023-04-03T14:23:45;8.00;56.90
13482;DHT22;6813;60.352;15.746;2023-04-03T14:26:16;8.20;57.70
13482;DHT22;6813;60.352;15.746;2023-04-03T14:28:45;8.30;57.00
13482;DHT22;6813;60.352;15.746;2023-04-03T14:31:12;8.30;55.80
13482;DHT22;6813;60.352;15.746;2023-04-03T14:33:38;8.40;56.90
13482;DHT22;6813;60.352;15.746;2023-04-03T14:36:16;8.40;54.10
13482;DHT22;6813;60.352;15.746;2023-04-03T14:38:43;8.20;54.40
13482;DHT22;6813;60.352;15.746;2023-04-03T14:41:13;8.10;58.40
13482;DHT22;6813;60.352;15.746;2023-04-03T14:43:40;8.00;59.10
13482;DHT22;6813;60.352;15.746;2023-04-03T14:46:13;8.10;56.70
13482;DHT22;6813;60.352;15.746;2023-04-03T14:48:39;8.20;56.20
13482;DHT22;6813;60.352;15.746;2023-04-03T14:51:05;8.30;57.00
13482;DHT22;6813;60.352;15.746;2023-04-03T14:53:31;8.30;55.00
13482;DHT22;6813;60.352;15.746;2023-04-03T14:55:58;8.30;55.70
13482;DHT22;6813;60.352;15.746;2023-04-03T14:58:24;8.30;56.50
13482;DHT22;6813;60.352;15.746;2023-04-03T15:00:49;8.50;57.40
13482;DHT22;6813;60.352;15.746;2023-04-03T15:03:18;8.60;56.30
13482;DHT22;6813;60.352;15.746;2023-04-03T15:05:45;8.70;55.50
13482;DHT22;6813;60.352;15.746;2023-04-03T15:08:23;8.50;54.20
13482;DHT22;6813;60.352;15.746;2023-04-03T15:10:50;8.60;55.50
13482;DHT22;6813;60.352;15.746;2023-04-03T15:13:18;8.60;56.20
13482;DHT22;6813;60.352;15.746;2023-04-03T15:15:45;8.60;56.00
13482;DHT22;6813;60.352;15.746;2023-04-03T15:18:18;8.60;56.30
13482;DHT22;6813;60.352;15.746;2023-04-03T15:20:44;8.70;58.20
13482;DHT22;6813;60.352;15.746;2023-04-03T15:23:12;8.70;57.90
13482;DHT22;6813;60.352;15.746;2023-04-03T15:25:38;8.70;55.90
13482;DHT22;6813;60.352;15.746;2023-04-03T15:28:05;8.70;55.00
13482;DHT22;6813;60.352;15.746;2023-04-03T15:30:31;8.70;56.70
13482;DHT22;6813;60.352;15.746;2023-04-03T15:32:57;8.60;54.50
13482;DHT22;6813;60.352;15.746;2023-04-03T15:35:23;8.60;56.90
13482;DHT22;6813;60.352;15.746;2023-04-03T15:37:49;8.70;57.80
13482;DHT22;6813;60.352;15.746;2023-04-03T15:40:15;8.70;56.30
13482;DHT22;6813;60.352;15.746;2023-04-03T15:42:41;8.70;55.10
13482;DHT22;6813;60.352;15.746;2023-04-03T15:45:07;8.70;55.90
13482;DHT22;6813;60.352;15.746;2023-04-03T15:47:33;8.60;54.30
13482;DHT22;6813;60.352;15.746;2023-04-03T15:49:59;8.30;54.10
13482;DHT22;6813;60.352;15.746;2023-04-03T15:52:25;8.40;55.40
13482;DHT22;6813;60.352;15.746;2023-04-03T15:54:51;8.40;55.20
13482;DHT22;6813;60.352;15.746;2023-04-03T15:57:16;8.50;55.40
13482;DHT22;6813;60.352;15.746;2023-04-03T15:59:42;8.50;55.00
13482;DHT22;6813;60.352;15.746;2023-04-03T16:02:10;8.50;54.90
13482;DHT22;6813;60.352;15.746;2023-04-03T16:04:38;8.50;55.30
13482;DHT22;6813;60.352;15.746;2023-04-03T16:07:04;8.50;57.00
13482;DHT22;6813;60.352;15.746;2023-04-03T16:09:31;8.60;58.70
13482;DHT22;6813;60.352;15.746;2023-04-03T16:11:58;8.60;56.80
13482;DHT22;6813;60.352;15.746;2023-04-03T16:14:23;8.60;55.80
13482;DHT22;6813;60.352;15.746;2023-04-03T16:16:49;8.60;55.90
13482;DHT22;6813;60.352;15.746;2023-04-03T16:19:15;8.60;57.50
13482;DHT22;6813;60.352;15.746;2023-04-03T16:21:41;8.60;59.80
13482;DHT22;6813;60.352;15.746;2023-04-03T16:24:07;8.70;57.30
13482;DHT22;6813;60.352;15.746;2023-04-03T16:26:33;8.70;56.80
13482;DHT22;6813;60.352;15.746;2023-04-03T16:28:59;8.70;57.40
13482;DHT22;6813;60.352;15.746;2023-04-03T16:31:25;8.70;56.30
13482;DHT22;6813;60.352;15.746;2023-04-03T16:33:51;8.60;56.90
13482;DHT22;6813;60.352;15.746;2023-04-03T16:36:17;8.60;55.20
13482;DHT22;6813;60.352;15.746;2023-04-03T16:38:43;8.50;56.00
13482;DHT22;6813;60.352;15.746;2023-04-03T16:41:09;8.50;57.40
13482;DHT22;6813;60.352;15.746;2023-04-03T16:43:35;8.50;57.50
13482;DHT22;6813;60.352;15.746;2023-04-03T16:46:02;8.50;58.10
13482;DHT22;6813;60.352;15.746;2023-04-03T16:48:29;8.50;58.70
13482;DHT22;6813;60.352;15.746;2023-04-03T16:50:55;8.50;57.40
13482;DHT22;6813;60.352;15.746;2023-04-03T16:53:21;8.50;59.30
13482;DHT22;6813;60.352;15.746;2023-04-03T16:55:47;8.50;67.60
13482;DHT22;6813;60.352;15.746;2023-04-03T16:58:13;8.50;68.90
13482;DHT22;6813;60.352;15.746;2023-04-03T17:00:40;8.50;65.50
13482;DHT22;6813;60.352;15.746;2023-04-03T17:03:06;8.40;63.50
13482;DHT22;6813;60.352;15.746;2023-04-03T17:05:31;8.40;67.70
13482;DHT22;6813;60.352;15.746;2023-04-03T17:07:57;8.40;67.20
13482;DHT22;6813;60.352;15.746;2023-04-03T17:10:23;8.40;66.70
13482;DHT22;6813;60.352;15.746;2023-04-03T17:12:49;8.40;65.40
13482;DHT22;6813;60.352;15.746;2023-04-03T17:15:15;8.40;69.40
13482;DHT22;6813;60.352;15.746;2023-04-03T17:17:41;8.30;63.20
13482;DHT22;6813;60.352;15.746;2023-04-03T17:20:07;8.00;62.30
13482;DHT22;6813;60.352;15.746;2023-04-03T17:22:33;7.90;61.90
13482;DHT22;6813;60.352;15.746;2023-04-03T17:24:58;7.80;62.30
13482;DHT22;6813;60.352;15.746;2023-04-03T17:27:24;7.70;63.80
13482;DHT22;6813;60.352;15.746;2023-04-03T17:29:50;7.60;62.80
13482;DHT22;6813;60.352;15.746;2023-04-03T17:32:19;7.40;63.60
13482;DHT22;6813;60.352;15.746;2023-04-03T17:34:48;7.40;68.50
13482;DHT22;6813;60.352;15.746;2023-04-03T17:37:13;7.50;70.00
13482;DHT22;6813;60.352;15.746;2023-04-03T17:39:39;7.50;69.20
13482;DHT22;6813;60.352;15.746;2023-04-03T17:42:05;7.20;66.10
13482;DHT22;6813;60.352;15.746;2023-04-03T17:44:31;6.90;66.30
13482;DHT22;6813;60.352;15.746;2023-04-03T17:46:56;6.60;66.60
13482;DHT22;6813;60.352;15.746;2023-04-03T17:49:22;6.30;67.30
13482;DHT22;6813;60.352;15.746;2023-04-03T17:55:08;5.60;68.80
13482;DHT22;6813;60.352;15.746;2023-04-03T17:57:34;5.40;70.50
13482;DHT22;6813;60.352;15.746;2023-04-03T18:00:00;5.20;71.30
13482;DHT22;6813;60.352;15.746;2023-04-03T18:02:25;5.00;71.90
13482;DHT22;6813;60.352;15.746;2023-04-03T18:04:52;4.80;72.30
13482;DHT22;6813;60.352;15.746;2023-04-03T18:07:18;4.60;73.10
13482;DHT22;6813;60.352;15.746;2023-04-03T18:09:45;4.20;73.70
13482;DHT22;6813;60.352;15.746;2023-04-03T18:12:12;4.10;74.70
13482;DHT22;6813;60.352;15.746;2023-04-03T18:14:39;4.10;76.00
13482;DHT22;6813;60.352;15.746;2023-04-03T18:17:05;4.20;77.00
13482;DHT22;6813;60.352;15.746;2023-04-03T18:19:52;4.40;78.60
13482;DHT22;6813;60.352;15.746;2023-04-03T18:22:22;4.20;75.00
13482;DHT22;6813;60.352;15.746;2023-04-03T18:24:50;3.80;75.70
13482;DHT22;6813;60.352;15.746;2023-04-03T18:27:19;3.40;76.80
13482;DHT22;6813;60.352;15.746;2023-04-03T18:29:47;3.00;78.00
13482;DHT22;6813;60.352;15.746;2023-04-03T18:32:16;2.70;79.00
13482;DHT22;6813;60.352;15.746;2023-04-03T18:34:42;2.50;80.00
13482;DHT22;6813;60.352;15.746;2023-04-03T18:37:08;2.40;81.00
13482;DHT22;6813;60.352;15.746;2023-04-03T18:39:34;2.30;81.60
13482;DHT22;6813;60.352;15.746;2023-04-03T18:42:08;2.30;81.60
13482;DHT22;6813;60.352;15.746;2023-04-03T18:44:36;2.20;81.50
13482;DHT22;6813;60.352;15.746;2023-04-03T18:47:02;2.30;82.10
13482;DHT22;6813;60.352;15.746;2023-04-03T18:49:29;2.20;82.50
13482;DHT22;6813;60.352;15.746;2023-04-03T18:51:56;2.00;82.40
13482;DHT22;6813;60.352;15.746;2023-04-03T18:54:22;2.00;84.40